createdAt,value
2023-01-25T00:00:34.348Z,102304.70
2023-01-25T00:03:04.321Z,102298.17
2023-01-25T00:05:34.157Z,102292.05
2023-01-25T00:08:03.924Z,102301.20
2023-01-25T00:10:34.028Z,102292.95
2023-01-25T00:13:03.802Z,102290.33
2023-01-25T00:15:33.610Z,102274.98
2023-01-25T00:18:03.682Z,102279.41
2023-01-25T00:20:33.780Z,102282.47
2023-01-25T00:23:03.551Z,102281.61
2023-01-25T00:25:33.333Z,102283.37
2023-01-25T00:28:03.097Z,102277.68
2023-01-25T00:30:32.967Z,102277.70
2023-01-25T00:33:11.613Z,102274.27
2023-01-25T00:35:41.426Z,102274.27
2023-01-25T00:38:16.529Z,102270.27
2023-01-25T00:40:49.119Z,102269.44
2023-01-25T00:43:18.931Z,102261.84
2023-01-25T00:45:48.846Z,102258.13
2023-01-25T00:48:18.687Z,102257.67
2023-01-25T00:50:48.577Z,102255.12
2023-01-25T00:53:18.210Z,102260.28
2023-01-25T00:55:54.583Z,102248.11
2023-01-25T00:58:24.417Z,102254.22
2023-01-25T01:00:56.177Z,102246.80
2023-01-25T01:03:26.226Z,102254.66
2023-01-25T01:06:08.788Z,102248.98
2023-01-25T01:08:41.446Z,102250.38
2023-01-25T01:11:12.743Z,102237.96
2023-01-25T01:13:42.569Z,102230.59
2023-01-25T01:16:14.682Z,102223.77
2023-01-25T01:18:46.356Z,102217.68
2023-01-25T01:21:16.329Z,102212.01
2023-01-25T01:23:46.241Z,102206.34
2023-01-25T01:26:19.165Z,102199.08
2023-01-25T01:28:49.552Z,102209.77
2023-01-25T01:31:22.845Z,102205.52
2023-01-25T01:33:58.524Z,102206.39
2023-01-25T01:36:30.754Z,102203.79
2023-01-25T01:39:01.323Z,102192.96
2023-01-25T01:41:31.291Z,102190.95
2023-01-25T01:44:01.360Z,102195.89
2023-01-25T01:46:42.508Z,102201.12
2023-01-25T01:49:22.262Z,102198.52
2023-01-25T01:52:04.254Z,102193.72
2023-01-25T01:54:44.733Z,102186.25
2023-01-25T01:57:29.419Z,102186.27
2023-01-25T02:00:02.032Z,102181.95
2023-01-25T02:02:33.703Z,102187.17
2023-01-25T02:05:06.881Z,102179.83
2023-01-25T02:07:39.590Z,102174.50
2023-01-25T02:10:12.564Z,102177.56
2023-01-25T02:12:45.513Z,102181.59
2023-01-25T02:15:15.550Z,102168.05
2023-01-25T02:17:45.464Z,102170.45
2023-01-25T02:20:18.313Z,102170.47
2023-01-25T02:23:03.115Z,102169.56
2023-01-25T02:25:33.358Z,102176.30
2023-01-25T02:28:16.427Z,102172.83
2023-01-25T02:30:47.029Z,102179.82
2023-01-25T02:33:18.504Z,102181.09
2023-01-25T02:35:54.368Z,102177.61
2023-01-25T02:38:24.067Z,102171.50
2023-01-25T02:41:02.007Z,102175.84
2023-01-25T02:43:35.047Z,102171.78
2023-01-25T02:46:15.254Z,102171.78
2023-01-25T02:48:46.654Z,102171.91
2023-01-25T02:51:16.491Z,102174.18
2023-01-25T02:53:46.240Z,102161.63
2023-01-25T02:56:18.095Z,102163.73
2023-01-25T02:58:49.855Z,102162.41
2023-01-25T03:01:20.918Z,102159.33
2023-01-25T03:03:50.965Z,102166.29
2023-01-25T03:06:20.791Z,102168.49
2023-01-25T03:08:50.695Z,102168.09
2023-01-25T03:11:21.970Z,102163.31
2023-01-25T03:13:53.070Z,102159.83
2023-01-25T03:16:22.647Z,102158.06
2023-01-25T03:18:54.834Z,102155.53
2023-01-25T03:21:25.301Z,102151.92
2023-01-25T03:24:01.300Z,102147.17
2023-01-25T03:26:34.495Z,102149.29
2023-01-25T03:29:06.366Z,102151.11
2023-01-25T03:31:37.792Z,102138.95
2023-01-25T03:34:07.389Z,102138.89
2023-01-25T03:36:38.873Z,102140.22
2023-01-25T03:39:08.629Z,102135.54
2023-01-25T03:41:40.120Z,102137.75
2023-01-25T03:44:13.340Z,102136.01
2023-01-25T03:46:43.896Z,102138.18
2023-01-25T03:49:14.131Z,102134.22
2023-01-25T03:51:44.617Z,102129.92
2023-01-25T03:54:14.379Z,102129.44
2023-01-25T03:56:44.123Z,102132.00
2023-01-25T03:59:15.394Z,102127.64
2023-01-25T04:01:45.795Z,102126.61
2023-01-25T04:04:15.392Z,102126.61
2023-01-25T04:06:45.872Z,102116.80
2023-01-25T04:09:15.611Z,102114.19
2023-01-25T04:11:53.025Z,102112.95
2023-01-25T04:14:34.942Z,102113.42
2023-01-25T04:16:58.778Z,102120.09
2023-01-25T04:19:33.041Z,102111.79
2023-01-25T04:22:03.711Z,102111.28
2023-01-25T04:24:38.028Z,102105.16
2023-01-25T04:27:08.955Z,102101.69
2023-01-25T04:29:41.930Z,102100.37
2023-01-25T04:32:13.766Z,102085.30
2023-01-25T04:34:44.232Z,102096.06
2023-01-25T04:37:15.809Z,102092.09
2023-01-25T04:39:47.259Z,102091.24
2023-01-25T04:42:16.738Z,102087.30
2023-01-25T04:44:47.660Z,102087.23
2023-01-25T04:47:17.228Z,102087.23
2023-01-25T04:49:47.653Z,102089.00
2023-01-25T04:52:19.171Z,102091.65
2023-01-25T04:54:49.179Z,102090.20
2023-01-25T04:57:19.214Z,102093.61
2023-01-25T04:59:50.677Z,102090.50
2023-01-25T05:02:20.824Z,102087.22
2023-01-25T05:04:50.784Z,102076.64
2023-01-25T05:07:20.897Z,102073.84
2023-01-25T05:09:50.711Z,102075.13
2023-01-25T05:12:21.130Z,102076.58
2023-01-25T05:14:52.674Z,102076.05
2023-01-25T05:17:23.471Z,102070.48
2023-01-25T05:19:53.296Z,102070.48
2023-01-25T05:22:24.683Z,102068.28
2023-01-25T05:24:55.555Z,102061.06
2023-01-25T05:27:26.975Z,102065.90
2023-01-25T05:29:58.819Z,102062.50
2023-01-25T05:32:30.309Z,102058.45
2023-01-25T05:35:01.047Z,102059.91
2023-01-25T05:37:30.960Z,102058.09
2023-01-25T05:40:01.471Z,102061.69
2023-01-25T05:42:31.566Z,102056.00
2023-01-25T05:45:01.825Z,102047.27
2023-01-25T05:47:32.348Z,102047.27
2023-01-25T05:50:02.147Z,102046.80
2023-01-25T05:52:39.646Z,102045.02
2023-01-25T05:55:09.761Z,102044.95
2023-01-25T05:57:39.632Z,102041.44
2023-01-25T06:00:10.143Z,102045.77
2023-01-25T06:02:42.252Z,102039.69
2023-01-25T06:05:13.687Z,102040.17
2023-01-25T06:07:43.938Z,102038.06
2023-01-25T06:10:13.780Z,102040.69
2023-01-25T06:12:44.050Z,101986.89
2023-01-25T06:15:13.545Z,102028.36
2023-01-25T06:17:43.405Z,102030.19
2023-01-25T06:20:20.260Z,102024.66
2023-01-25T06:23:00.345Z,102027.05
2023-01-25T06:25:30.107Z,102028.59
2023-01-25T06:28:00.018Z,102033.50
2023-01-25T06:30:29.784Z,102035.02
2023-01-25T06:33:00.289Z,102035.08
2023-01-25T06:35:32.261Z,102032.33
2023-01-25T06:38:02.447Z,102037.02
2023-01-25T06:40:32.206Z,102039.20
2023-01-25T06:43:12.708Z,102036.14
2023-01-25T06:45:42.673Z,102034.30
2023-01-25T06:48:13.755Z,102032.33
2023-01-25T06:50:43.566Z,102031.28
2023-01-25T06:53:13.204Z,102028.81
2023-01-25T06:55:42.958Z,102027.19
2023-01-25T06:58:12.473Z,102029.47
2023-01-25T07:00:42.230Z,102025.72
2023-01-25T07:03:11.799Z,102026.16
2023-01-25T07:05:41.562Z,102025.75
2023-01-25T07:08:11.041Z,102016.13
2023-01-25T07:10:40.791Z,102014.84
2023-01-25T07:13:10.339Z,102009.16
2023-01-25T07:15:40.095Z,102004.70
2023-01-25T07:18:16.253Z,102006.80
2023-01-25T07:20:42.204Z,102006.47
2023-01-25T07:23:11.997Z,102001.79
2023-01-25T07:25:49.407Z,102016.13
2023-01-25T07:28:19.188Z,102000.46
2023-01-25T07:30:49.514Z,101997.42
2023-01-25T07:33:19.343Z,102004.89
2023-01-25T07:35:50.913Z,101997.59
2023-01-25T07:38:20.608Z,101997.59
2023-01-25T07:40:54.249Z,101997.29
2023-01-25T07:43:24.015Z,101996.36
2023-01-25T07:45:54.342Z,101997.48
2023-01-25T07:48:23.983Z,101994.67
2023-01-25T07:50:55.397Z,101992.19
2023-01-25T07:53:24.899Z,101982.53
2023-01-25T07:55:54.721Z,101987.90
2023-01-25T07:58:24.504Z,101987.41
2023-01-25T08:00:54.440Z,101989.62
2023-01-25T08:03:24.235Z,101986.61
2023-01-25T08:05:55.107Z,101983.84
2023-01-25T08:08:23.911Z,101976.67
2023-01-25T08:10:54.384Z,101970.67
2023-01-25T08:13:23.926Z,101963.27
2023-01-25T08:15:57.045Z,101961.35
2023-01-25T08:18:26.823Z,101967.31
2023-01-25T08:21:03.814Z,101967.31
2023-01-25T08:23:34.135Z,101965.09
2023-01-25T08:26:05.850Z,101972.66
2023-01-25T08:28:39.080Z,101972.13
2023-01-25T08:31:18.421Z,101972.83
2023-01-25T08:33:49.197Z,101970.72
2023-01-25T08:36:19.697Z,101974.12
2023-01-25T08:38:49.750Z,101970.09
2023-01-25T08:41:20.522Z,101963.50
2023-01-25T08:43:51.994Z,101965.44
2023-01-25T08:46:23.149Z,101962.91
2023-01-25T08:49:13.096Z,101968.49
2023-01-25T08:51:46.272Z,101960.69
2023-01-25T08:54:17.016Z,101951.28
2023-01-25T08:56:49.919Z,101944.82
2023-01-25T08:59:19.777Z,101932.56
2023-01-25T09:01:49.892Z,101926.58
2023-01-25T09:04:19.430Z,101921.73
2023-01-25T09:06:49.246Z,101916.07
2023-01-25T09:09:18.732Z,101919.93
2023-01-25T09:11:48.481Z,101912.68
2023-01-25T09:14:18.037Z,101917.77
2023-01-25T09:16:47.773Z,101922.42
2023-01-25T09:19:17.269Z,101919.74
2023-01-25T09:21:48.276Z,101928.09
2023-01-25T09:24:18.220Z,101930.31
2023-01-25T09:26:56.087Z,101926.62
2023-01-25T09:29:19.796Z,101920.67
2023-01-25T09:31:49.665Z,101920.97
2023-01-25T09:34:24.016Z,101919.56
2023-01-25T09:36:54.040Z,101912.08
2023-01-25T09:39:23.738Z,101916.70
2023-01-25T09:42:15.567Z,101906.28
2023-01-25T09:45:10.659Z,101906.28
2023-01-25T09:47:43.760Z,101902.84
2023-01-25T09:50:39.047Z,101888.25
2023-01-25T09:53:25.468Z,101888.25
2023-01-25T09:55:58.873Z,101880.00
2023-01-25T09:58:37.578Z,101882.50
2023-01-25T10:01:21.781Z,101869.69
2023-01-25T10:03:56.442Z,101871.72
2023-01-25T10:06:46.118Z,101864.62
2023-01-25T10:09:18.555Z,101866.08
2023-01-25T10:11:48.531Z,101865.14
2023-01-25T10:14:21.376Z,101866.58
2023-01-25T10:16:54.249Z,101859.28
2023-01-25T10:19:48.040Z,101867.34
2023-01-25T10:22:23.547Z,101851.47
2023-01-25T10:25:23.787Z,101845.93
2023-01-25T10:28:02.495Z,101845.55
2023-01-25T10:30:41.072Z,101841.07
2023-01-25T10:33:19.116Z,101837.20
2023-01-25T10:35:50.541Z,101844.16
2023-01-25T10:38:28.822Z,101851.35
2023-01-25T10:41:11.028Z,101840.05
2023-01-25T10:43:40.720Z,101840.34
2023-01-25T10:46:22.384Z,101839.36
2023-01-25T10:48:52.222Z,101840.24
2023-01-25T10:51:35.656Z,101837.14
2023-01-25T10:54:07.528Z,101840.13
2023-01-25T10:56:40.327Z,101822.82
2023-01-25T10:59:27.959Z,101822.82
2023-01-25T11:02:01.435Z,101823.13
2023-01-25T11:04:35.155Z,101814.05
2023-01-25T11:07:06.607Z,101807.83
2023-01-25T11:09:39.110Z,101813.96
2023-01-25T11:12:20.369Z,101807.84
2023-01-25T11:14:51.431Z,101800.45
2023-01-25T11:17:27.496Z,101800.89
2023-01-25T11:20:09.449Z,101803.08
2023-01-25T11:22:40.900Z,101801.12
2023-01-25T11:25:29.656Z,101798.00
2023-01-25T11:28:19.888Z,101787.30
2023-01-25T11:30:50.800Z,101771.41
2023-01-25T11:33:23.247Z,101764.80
2023-01-25T11:36:26.407Z,101758.42
2023-01-25T11:39:13.636Z,101747.00
2023-01-25T11:41:52.106Z,101746.90
2023-01-25T11:44:51.802Z,101743.02
2023-01-25T11:47:56.971Z,101731.36
2023-01-25T11:50:35.673Z,101733.69
2023-01-25T11:53:21.649Z,101722.85
2023-01-25T11:55:57.034Z,101719.45
2023-01-25T11:58:41.630Z,101716.31
2023-01-25T12:01:30.586Z,101710.68
2023-01-25T12:04:37.553Z,101699.72
2023-01-25T12:07:37.217Z,101701.72
2023-01-25T12:10:44.447Z,101690.48
2023-01-25T12:13:35.176Z,101687.95
2023-01-25T12:16:13.006Z,101673.73
2023-01-25T12:18:52.064Z,101669.09
2023-01-25T12:21:44.159Z,101667.84
2023-01-25T12:24:43.826Z,101664.78
2023-01-25T12:27:43.592Z,101662.86
2023-01-25T12:30:16.127Z,101655.42
2023-01-25T12:32:59.486Z,101647.50
2023-01-25T12:35:28.965Z,101623.70
2023-01-25T12:38:01.784Z,101639.73
2023-01-25T12:40:40.167Z,101638.64
2023-01-25T12:43:12.680Z,101632.38
2023-01-25T12:45:45.196Z,101630.73
2023-01-25T12:48:29.938Z,101629.94
2023-01-25T12:51:00.645Z,101624.94
2023-01-25T12:53:36.252Z,101623.36
2023-01-25T12:56:12.752Z,101623.36
2023-01-25T12:59:06.882Z,101617.61
2023-01-25T13:02:00.554Z,101615.05
2023-01-25T13:04:39.315Z,101615.11
2023-01-25T13:07:28.308Z,101609.91
2023-01-25T13:10:09.015Z,101602.61
2023-01-25T13:12:57.317Z,101602.61
2023-01-25T13:15:40.567Z,101605.55
2023-01-25T13:18:33.480Z,101603.97
2023-01-25T13:21:06.416Z,101606.02
2023-01-25T13:23:40.482Z,101600.35
2023-01-25T13:26:28.453Z,101594.64
2023-01-25T13:29:02.175Z,101592.48
2023-01-25T13:31:53.049Z,101588.47
2023-01-25T13:34:18.325Z,101585.65
2023-01-25T13:36:48.711Z,101581.20
2023-01-25T13:39:32.998Z,101576.96
2023-01-25T13:42:11.675Z,101566.36
2023-01-25T13:44:50.177Z,101564.08
2023-01-25T13:47:22.238Z,101567.92
2023-01-25T13:50:04.143Z,101568.98
2023-01-25T13:52:35.452Z,101568.98
2023-01-25T13:55:06.356Z,101562.92
2023-01-25T13:57:35.959Z,101561.47
2023-01-25T14:00:11.668Z,101570.90
2023-01-25T14:02:45.669Z,101558.20
2023-01-25T14:05:24.021Z,101554.22
2023-01-25T14:07:58.829Z,101560.64
2023-01-25T14:10:30.137Z,101559.12
2023-01-25T14:13:01.677Z,101556.34
2023-01-25T14:15:33.594Z,101554.34
2023-01-25T14:18:21.027Z,101554.20
2023-01-25T14:20:53.483Z,101553.20
2023-01-25T14:23:28.681Z,101547.09
2023-01-25T14:26:01.246Z,101546.03
2023-01-25T14:28:31.539Z,101541.31
2023-01-25T14:31:06.016Z,101529.97
2023-01-25T14:33:38.535Z,101528.55
2023-01-25T14:36:24.341Z,101525.34
2023-01-25T14:38:44.751Z,101523.87
2023-01-25T14:41:38.791Z,101515.23
2023-01-25T14:44:14.595Z,101515.23
2023-01-25T14:46:44.340Z,101508.53
2023-01-25T14:49:28.768Z,101500.44
2023-01-25T14:52:07.781Z,101501.00
2023-01-25T14:54:40.684Z,101493.88
2023-01-25T14:57:30.044Z,101486.91
2023-01-25T15:00:01.567Z,101484.94
2023-01-25T15:02:43.143Z,101474.55
2023-01-25T15:05:24.729Z,101477.07
2023-01-25T15:08:00.678Z,101483.08
2023-01-25T15:10:33.032Z,101471.20
2023-01-25T15:13:15.452Z,101465.52
2023-01-25T15:15:58.714Z,101459.48
2023-01-25T15:18:48.615Z,101456.02
2023-01-25T15:21:20.664Z,101451.71
2023-01-25T15:23:52.124Z,101445.78
2023-01-25T15:26:27.022Z,101446.42
2023-01-25T15:28:59.046Z,101443.78
2023-01-25T15:31:32.015Z,101443.07
2023-01-25T15:34:02.918Z,101440.78
2023-01-25T15:36:33.721Z,101439.00
2023-01-25T15:39:03.478Z,101445.02
2023-01-25T15:41:33.209Z,101433.58
2023-01-25T15:44:03.101Z,101434.25
2023-01-25T15:46:33.655Z,101432.00
2023-01-25T15:49:06.718Z,101432.00
2023-01-25T15:51:36.627Z,101433.20
2023-01-25T15:54:07.377Z,101429.67
2023-01-25T15:56:38.723Z,101424.35
2023-01-25T15:59:11.106Z,101423.72
2023-01-25T16:01:40.908Z,101419.95
2023-01-25T16:04:13.747Z,101412.98
2023-01-25T16:06:52.044Z,101412.18
2023-01-25T16:09:31.022Z,101402.08
2023-01-25T16:12:03.051Z,101400.97
2023-01-25T16:14:32.821Z,101393.64
2023-01-25T16:17:05.673Z,101393.77
2023-01-25T16:19:35.863Z,101387.43
2023-01-25T16:22:06.884Z,101388.80
2023-01-25T16:24:39.464Z,101394.31
2023-01-25T16:27:14.886Z,101384.76
2023-01-25T16:29:44.662Z,101381.03
2023-01-25T16:32:14.490Z,101378.36
2023-01-25T16:34:44.350Z,101378.86
2023-01-25T16:37:18.739Z,101373.30
2023-01-25T16:39:49.548Z,101370.71
2023-01-25T16:42:22.363Z,101368.61
2023-01-25T16:44:51.107Z,101362.43
2023-01-25T16:47:26.116Z,101370.78
2023-01-25T16:49:56.396Z,101369.84
2023-01-25T16:52:26.167Z,101369.84
2023-01-25T16:54:56.018Z,101366.95
2023-01-25T16:57:25.772Z,101356.89
2023-01-25T16:59:55.917Z,101356.89
2023-01-25T17:02:25.724Z,101357.18
2023-01-25T17:04:55.619Z,101349.22
2023-01-25T17:07:25.346Z,101351.19
2023-01-25T17:09:55.219Z,101344.59
2023-01-25T17:12:24.956Z,101349.38
2023-01-25T17:14:54.891Z,101344.44
2023-01-25T17:17:26.311Z,101338.94
2023-01-25T17:19:55.119Z,101335.24
2023-01-25T17:22:24.934Z,101339.00
2023-01-25T17:24:55.848Z,101337.44
2023-01-25T17:27:25.689Z,101327.25
2023-01-25T17:29:55.516Z,101322.28
2023-01-25T17:32:25.402Z,101320.69
2023-01-25T17:34:57.106Z,101308.23
2023-01-25T17:37:26.860Z,101314.20
2023-01-25T17:39:56.644Z,101314.90
2023-01-25T17:42:26.413Z,101319.05
2023-01-25T17:44:56.174Z,101320.38
2023-01-25T17:47:26.000Z,101316.88
2023-01-25T17:49:55.789Z,101314.55
2023-01-25T17:52:25.528Z,101317.03
2023-01-25T17:54:55.323Z,101307.42
2023-01-25T17:57:26.227Z,101302.52
2023-01-25T17:59:56.079Z,101297.68
2023-01-25T18:02:25.945Z,101297.68
2023-01-25T18:04:57.331Z,101292.68
2023-01-25T18:07:26.084Z,101286.83
2023-01-25T18:09:55.889Z,101285.14
2023-01-25T18:12:25.736Z,101284.12
2023-01-25T18:14:55.779Z,101285.73
2023-01-25T18:17:25.627Z,101286.22
2023-01-25T18:19:55.680Z,101281.83
2023-01-25T18:22:25.621Z,101284.66
2023-01-25T18:24:55.655Z,101278.52
2023-01-25T18:27:27.841Z,101277.25
2023-01-25T18:30:09.248Z,101275.17
2023-01-25T18:32:39.027Z,101267.70
2023-01-25T18:35:10.291Z,101270.49
2023-01-25T18:37:40.721Z,101267.47
2023-01-25T18:40:13.911Z,101260.70
2023-01-25T18:42:45.507Z,101261.59
2023-01-25T18:45:16.032Z,101257.61
2023-01-25T18:47:45.842Z,101258.56
2023-01-25T18:50:16.393Z,101258.34
2023-01-25T18:52:46.533Z,101258.27
2023-01-25T18:55:16.313Z,101248.03
2023-01-25T18:57:46.065Z,101244.19
2023-01-25T19:00:17.048Z,101236.38
2023-01-25T19:02:47.076Z,101240.42
2023-01-25T19:05:18.622Z,101231.04
2023-01-25T19:07:48.374Z,101232.98
2023-01-25T19:10:18.886Z,101228.62
2023-01-25T19:12:48.950Z,101226.52
2023-01-25T19:15:18.683Z,101220.61
2023-01-25T19:17:48.434Z,101220.95
2023-01-25T19:20:18.231Z,101222.26
2023-01-25T19:22:48.248Z,101219.18
2023-01-25T19:25:18.117Z,101217.66
2023-01-25T19:27:47.897Z,101209.75
2023-01-25T19:30:17.477Z,101208.33
2023-01-25T19:32:47.265Z,101204.89
2023-01-25T19:35:16.784Z,101206.77
2023-01-25T19:37:47.348Z,101204.50
2023-01-25T19:40:18.528Z,101198.42
2023-01-25T19:42:48.422Z,101196.09
2023-01-25T19:45:18.205Z,101201.04
2023-01-25T19:47:48.037Z,101195.80
2023-01-25T19:50:17.995Z,101195.58
2023-01-25T19:52:48.076Z,101190.90
2023-01-25T19:55:17.765Z,101195.19
2023-01-25T19:57:47.789Z,101184.57
2023-01-25T20:00:17.738Z,101177.47
2023-01-25T20:02:47.728Z,101178.55
2023-01-25T20:05:17.802Z,101178.97
2023-01-25T20:07:47.545Z,101175.50
2023-01-25T20:10:17.528Z,101178.45
2023-01-25T20:12:47.510Z,101172.03
2023-01-25T20:15:17.712Z,101164.89
2023-01-25T20:17:47.223Z,101159.91
2023-01-25T20:20:17.039Z,101148.09
2023-01-25T20:22:48.440Z,101148.09
2023-01-25T20:25:18.971Z,101145.80
2023-01-25T20:27:49.067Z,101145.80
2023-01-25T20:30:19.022Z,101137.80
2023-01-25T20:32:48.803Z,101135.25
2023-01-25T20:35:18.292Z,101129.42
2023-01-25T20:37:49.420Z,101127.68
2023-01-25T20:40:19.010Z,101122.89
2023-01-25T20:42:49.072Z,101117.65
2023-01-25T20:45:18.921Z,101116.06
2023-01-25T20:47:48.702Z,101116.06
2023-01-25T20:50:18.652Z,101118.02
2023-01-25T20:52:48.438Z,101116.75
2023-01-25T20:55:18.279Z,101115.34
2023-01-25T20:57:48.104Z,101112.63
2023-01-25T21:00:18.362Z,101109.69
2023-01-25T21:02:47.923Z,101104.37
2023-01-25T21:05:17.680Z,101104.37
2023-01-25T21:07:47.490Z,101107.66
2023-01-25T21:10:17.899Z,101105.67
2023-01-25T21:12:47.502Z,101103.23
2023-01-25T21:15:17.858Z,101100.11
2023-01-25T21:17:52.780Z,101092.33
2023-01-25T21:20:22.494Z,101092.33
2023-01-25T21:22:52.304Z,101093.70
2023-01-25T21:25:21.850Z,101095.73
2023-01-25T21:27:53.300Z,101086.19
2023-01-25T21:30:23.332Z,101085.58
2023-01-25T21:32:53.273Z,101082.75
2023-01-25T21:35:23.109Z,101078.87
2023-01-25T21:37:53.374Z,101077.15
2023-01-25T21:40:23.130Z,101072.34
2023-01-25T21:42:52.901Z,101078.25
2023-01-25T21:45:40.268Z,101078.25
2023-01-25T21:48:10.078Z,101086.85
2023-01-25T21:50:57.511Z,101084.89
2023-01-25T21:53:27.573Z,101078.21
2023-01-25T21:56:00.115Z,101082.62
2023-01-25T21:58:29.883Z,101082.05
2023-01-25T22:01:04.732Z,101070.15
2023-01-25T22:03:34.806Z,101078.45
2023-01-25T22:06:04.809Z,101081.42
2023-01-25T22:08:34.879Z,101078.41
2023-01-25T22:11:10.800Z,101077.94
2023-01-25T22:13:41.695Z,101072.00
2023-01-25T22:16:12.544Z,101065.17
2023-01-25T22:18:44.078Z,101068.48
2023-01-25T22:21:16.966Z,101064.48
2023-01-25T22:23:48.777Z,101057.27
2023-01-25T22:26:21.019Z,101050.34
2023-01-25T22:28:56.360Z,101043.15
2023-01-25T22:31:28.628Z,101047.20
2023-01-25T22:33:59.933Z,101047.20
2023-01-25T22:36:31.154Z,101045.61
2023-01-25T22:39:03.028Z,101041.73
2023-01-25T22:41:34.173Z,101038.52
2023-01-25T22:44:04.093Z,101033.26
2023-01-25T22:46:33.774Z,101022.33
2023-01-25T22:49:04.781Z,101016.39
2023-01-25T22:51:34.753Z,101015.77
2023-01-25T22:54:05.105Z,101014.20
2023-01-25T22:56:35.382Z,101013.58
2023-01-25T22:59:07.972Z,101014.84
2023-01-25T23:01:37.753Z,101014.84
2023-01-25T23:04:07.313Z,101002.98
2023-01-25T23:06:37.854Z,101000.55
2023-01-25T23:09:07.914Z,101000.55
2023-01-25T23:11:39.104Z,100998.42
2023-01-25T23:14:29.176Z,100989.26
2023-01-25T23:17:16.754Z,100984.80
2023-01-25T23:19:46.658Z,100978.80
2023-01-25T23:22:16.487Z,100978.45
2023-01-25T23:24:46.268Z,100980.34
2023-01-25T23:27:16.128Z,100972.19
2023-01-25T23:29:46.022Z,100972.19
2023-01-25T23:32:15.749Z,100963.46
2023-01-25T23:34:45.542Z,100962.41
2023-01-25T23:37:16.922Z,100959.73
2023-01-25T23:39:45.715Z,100960.73
2023-01-25T23:42:15.443Z,100963.67
2023-01-25T23:44:45.306Z,100961.92
2023-01-25T23:47:14.974Z,100961.75
2023-01-25T23:49:44.822Z,100959.14
2023-01-25T23:52:14.432Z,100957.12
2023-01-25T23:54:44.228Z,100960.66
2023-01-25T23:57:13.784Z,100952.17
2023-01-25T23:59:43.593Z,100952.19
